sensor_id;sensor_type;location;lat;lon;timestamp;P1;durP1;ratioP1;P2;durP2;ratioP2
12990;SDS011;6560;57.692;11.958;2023-04-03T00:00:48;3.57;;;1.77;;
12990;SDS011;6560;57.692;11.958;2023-04-03T00:03:14;1.87;;;1.47;;
12990;SDS011;6560;57.692;11.958;2023-04-03T00:05:41;2.33;;;1.53;;
12990;SDS011;6560;57.692;11.958;2023-04-03T00:08:06;3.33;;;1.90;;
12990;SDS011;6560;57.692;11.958;2023-04-03T00:10:34;2.07;;;1.50;;
12990;SDS011;6560;57.692;11.958;2023-04-03T00:13:00;2.47;;;1.67;;
12990;SDS011;6560;57.692;11.958;2023-04-03T00:15:26;2.97;;;1.50;;
12990;SDS011;6560;57.692;11.958;2023-04-03T00:17:51;3.77;;;1.63;;
12990;SDS011;6560;57.692;11.958;2023-04-03T00:20:17;2.00;;;1.33;;
12990;SDS011;6560;57.692;11.958;2023-04-03T00:22:42;3.37;;;1.47;;
12990;SDS011;6560;57.692;11.958;2023-04-03T00:25:08;4.63;;;1.33;;
12990;SDS011;6560;57.692;11.958;2023-04-03T00:27:36;4.80;;;1.53;;
12990;SDS011;6560;57.692;11.958;2023-04-03T00:30:03;7.90;;;2.00;;
12990;SDS011;6560;57.692;11.958;2023-04-03T00:32:28;1.43;;;1.30;;
12990;SDS011;6560;57.692;11.958;2023-04-03T00:34:54;3.93;;;1.80;;
12990;SDS011;6560;57.692;11.958;2023-04-03T00:37:20;4.17;;;1.80;;
12990;SDS011;6560;57.692;11.958;2023-04-03T00:39:45;4.60;;;1.60;;
12990;SDS011;6560;57.692;11.958;2023-04-03T00:42:11;1.90;;;1.60;;
12990;SDS011;6560;57.692;11.958;2023-04-03T00:47:03;2.87;;;1.73;;
12990;SDS011;6560;57.692;11.958;2023-04-03T00:49:32;4.47;;;1.87;;
12990;SDS011;6560;57.692;11.958;2023-04-03T00:51:57;3.77;;;1.80;;
12990;SDS011;6560;57.692;11.958;2023-04-03T00:54:24;6.17;;;1.90;;
12990;SDS011;6560;57.692;11.958;2023-04-03T00:56:51;2.83;;;1.50;;
12990;SDS011;6560;57.692;11.958;2023-04-03T00:59:28;3.70;;;1.50;;
12990;SDS011;6560;57.692;11.958;2023-04-03T01:01:57;1.20;;;1.10;;
12990;SDS011;6560;57.692;11.958;2023-04-03T01:04:27;1.60;;;1.07;;
12990;SDS011;6560;57.692;11.958;2023-04-03T01:07:05;1.87;;;1.47;;
12990;SDS011;6560;57.692;11.958;2023-04-03T01:09:34;4.63;;;1.30;;
12990;SDS011;6560;57.692;11.958;2023-04-03T01:12:17;4.77;;;1.43;;
12990;SDS011;6560;57.692;11.958;2023-04-03T01:14:48;1.87;;;1.13;;
12990;SDS011;6560;57.692;11.958;2023-04-03T01:22:39;2.93;;;1.23;;
12990;SDS011;6560;57.692;11.958;2023-04-03T01:25:15;1.30;;;0.67;;
12990;SDS011;6560;57.692;11.958;2023-04-03T01:27:40;1.37;;;1.00;;
12990;SDS011;6560;57.692;11.958;2023-04-03T01:30:06;1.97;;;0.90;;
12990;SDS011;6560;57.692;11.958;2023-04-03T01:32:33;1.47;;;0.80;;
12990;SDS011;6560;57.692;11.958;2023-04-03T01:34:58;2.17;;;1.00;;
12990;SDS011;6560;57.692;11.958;2023-04-03T01:37:24;1.17;;;0.90;;
12990;SDS011;6560;57.692;11.958;2023-04-03T01:39:49;2.03;;;1.03;;
12990;SDS011;6560;57.692;11.958;2023-04-03T01:42:15;5.63;;;0.90;;
12990;SDS011;6560;57.692;11.958;2023-04-03T01:44:41;1.43;;;1.00;;
12990;SDS011;6560;57.692;11.958;2023-04-03T01:47:06;0.53;;;0.53;;
12990;SDS011;6560;57.692;11.958;2023-04-03T01:49:32;1.20;;;0.90;;
12990;SDS011;6560;57.692;11.958;2023-04-03T01:51:58;0.93;;;0.83;;
12990;SDS011;6560;57.692;11.958;2023-04-03T01:54:23;4.70;;;1.33;;
12990;SDS011;6560;57.692;11.958;2023-04-03T01:56:48;2.57;;;0.90;;
12990;SDS011;6560;57.692;11.958;2023-04-03T01:59:14;1.93;;;1.00;;
12990;SDS011;6560;57.692;11.958;2023-04-03T02:01:42;1.27;;;0.70;;
12990;SDS011;6560;57.692;11.958;2023-04-03T02:04:10;2.47;;;1.00;;
12990;SDS011;6560;57.692;11.958;2023-04-03T02:06:36;1.03;;;0.83;;
12990;SDS011;6560;57.692;11.958;2023-04-03T02:09:01;1.93;;;0.97;;
12990;SDS011;6560;57.692;11.958;2023-04-03T02:11:27;2.43;;;1.17;;
12990;SDS011;6560;57.692;11.958;2023-04-03T02:13:52;1.80;;;1.07;;
12990;SDS011;6560;57.692;11.958;2023-04-03T02:16:18;2.40;;;0.93;;
12990;SDS011;6560;57.692;11.958;2023-04-03T02:18:43;5.47;;;1.33;;
12990;SDS011;6560;57.692;11.958;2023-04-03T02:21:09;1.00;;;0.90;;
12990;SDS011;6560;57.692;11.958;2023-04-03T02:23:34;3.37;;;1.10;;
12990;SDS011;6560;57.692;11.958;2023-04-03T02:26:12;2.00;;;1.00;;
12990;SDS011;6560;57.692;11.958;2023-04-03T02:28:39;1.40;;;1.00;;
12990;SDS011;6560;57.692;11.958;2023-04-03T02:31:06;2.67;;;0.93;;
12990;SDS011;6560;57.692;11.958;2023-04-03T02:33:32;1.87;;;0.87;;
12990;SDS011;6560;57.692;11.958;2023-04-03T02:35:59;1.73;;;1.20;;
12990;SDS011;6560;57.692;11.958;2023-04-03T02:38:25;2.40;;;1.00;;
12990;SDS011;6560;57.692;11.958;2023-04-03T02:40:51;3.50;;;1.20;;
12990;SDS011;6560;57.692;11.958;2023-04-03T02:43:17;1.70;;;1.10;;
12990;SDS011;6560;57.692;11.958;2023-04-03T02:45:42;3.13;;;1.93;;
12990;SDS011;6560;57.692;11.958;2023-04-03T02:48:08;2.77;;;1.20;;
12990;SDS011;6560;57.692;11.958;2023-04-03T02:50:33;1.47;;;0.87;;
12990;SDS011;6560;57.692;11.958;2023-04-03T02:52:59;3.87;;;1.07;;
12990;SDS011;6560;57.692;11.958;2023-04-03T02:55:25;2.83;;;1.73;;
12990;SDS011;6560;57.692;11.958;2023-04-03T02:57:51;3.27;;;0.80;;
12990;SDS011;6560;57.692;11.958;2023-04-03T03:00:16;1.60;;;0.90;;
12990;SDS011;6560;57.692;11.958;2023-04-03T03:02:43;2.33;;;1.00;;
12990;SDS011;6560;57.692;11.958;2023-04-03T03:05:10;1.73;;;1.00;;
12990;SDS011;6560;57.692;11.958;2023-04-03T03:07:35;2.37;;;0.80;;
12990;SDS011;6560;57.692;11.958;2023-04-03T03:10:01;1.87;;;0.80;;
12990;SDS011;6560;57.692;11.958;2023-04-03T03:12:27;1.10;;;0.80;;
12990;SDS011;6560;57.692;11.958;2023-04-03T03:14:52;0.63;;;0.63;;
12990;SDS011;6560;57.692;11.958;2023-04-03T03:17:18;1.00;;;0.80;;
12990;SDS011;6560;57.692;11.958;2023-04-03T03:19:43;3.20;;;0.70;;
12990;SDS011;6560;57.692;11.958;2023-04-03T03:22:10;0.53;;;0.50;;
12990;SDS011;6560;57.692;11.958;2023-04-03T03:24:39;1.87;;;0.70;;
12990;SDS011;6560;57.692;11.958;2023-04-03T03:27:04;3.37;;;0.80;;
12990;SDS011;6560;57.692;11.958;2023-04-03T03:29:30;0.80;;;0.80;;
12990;SDS011;6560;57.692;11.958;2023-04-03T03:31:56;1.37;;;0.77;;
12990;SDS011;6560;57.692;11.958;2023-04-03T03:34:21;2.23;;;0.67;;
12990;SDS011;6560;57.692;11.958;2023-04-03T03:36:47;1.83;;;0.80;;
12990;SDS011;6560;57.692;11.958;2023-04-03T03:39:12;0.70;;;0.53;;
12990;SDS011;6560;57.692;11.958;2023-04-03T03:41:38;4.60;;;1.00;;
12990;SDS011;6560;57.692;11.958;2023-04-03T03:44:03;1.17;;;0.53;;
12990;SDS011;6560;57.692;11.958;2023-04-03T03:46:29;1.43;;;0.70;;
12990;SDS011;6560;57.692;11.958;2023-04-03T03:48:55;2.10;;;0.70;;
12990;SDS011;6560;57.692;11.958;2023-04-03T03:51:20;2.17;;;0.90;;
12990;SDS011;6560;57.692;11.958;2023-04-03T03:53:46;2.30;;;0.77;;
12990;SDS011;6560;57.692;11.958;2023-04-03T03:56:18;1.83;;;0.90;;
12990;SDS011;6560;57.692;11.958;2023-04-03T03:58:43;4.10;;;1.27;;
12990;SDS011;6560;57.692;11.958;2023-04-03T04:01:09;1.27;;;0.90;;
12990;SDS011;6560;57.692;11.958;2023-04-03T04:03:34;3.07;;;1.27;;
12990;SDS011;6560;57.692;11.958;2023-04-03T04:06:00;2.80;;;0.90;;
12990;SDS011;6560;57.692;11.958;2023-04-03T04:08:26;1.03;;;0.73;;
12990;SDS011;6560;57.692;11.958;2023-04-03T04:10:51;2.93;;;1.00;;
12990;SDS011;6560;57.692;11.958;2023-04-03T04:13:17;4.90;;;1.83;;
12990;SDS011;6560;57.692;11.958;2023-04-03T04:15:43;0.93;;;0.80;;
12990;SDS011;6560;57.692;11.958;2023-04-03T04:18:08;2.20;;;1.07;;
12990;SDS011;6560;57.692;11.958;2023-04-03T04:20:34;4.27;;;1.37;;
12990;SDS011;6560;57.692;11.958;2023-04-03T04:22:59;2.73;;;1.10;;
12990;SDS011;6560;57.692;11.958;2023-04-03T04:25:25;1.73;;;1.23;;
12990;SDS011;6560;57.692;11.958;2023-04-03T04:27:57;4.97;;;1.80;;
12990;SDS011;6560;57.692;11.958;2023-04-03T04:30:23;4.83;;;1.83;;
12990;SDS011;6560;57.692;11.958;2023-04-03T04:32:48;4.90;;;1.60;;
12990;SDS011;6560;57.692;11.958;2023-04-03T04:35:14;4.80;;;1.80;;
12990;SDS011;6560;57.692;11.958;2023-04-03T04:37:40;3.87;;;1.60;;
12990;SDS011;6560;57.692;11.958;2023-04-03T04:40:06;2.97;;;1.70;;
12990;SDS011;6560;57.692;11.958;2023-04-03T04:42:32;3.33;;;1.93;;
12990;SDS011;6560;57.692;11.958;2023-04-03T04:44:57;6.43;;;2.20;;
12990;SDS011;6560;57.692;11.958;2023-04-03T04:47:23;7.17;;;2.10;;
12990;SDS011;6560;57.692;11.958;2023-04-03T04:49:49;6.40;;;2.03;;
12990;SDS011;6560;57.692;11.958;2023-04-03T04:52:14;5.83;;;1.90;;
12990;SDS011;6560;57.692;11.958;2023-04-03T04:54:40;9.80;;;2.10;;
12990;SDS011;6560;57.692;11.958;2023-04-03T04:57:05;8.43;;;2.23;;
12990;SDS011;6560;57.692;11.958;2023-04-03T04:59:31;5.97;;;2.17;;
12990;SDS011;6560;57.692;11.958;2023-04-03T05:01:56;6.23;;;1.67;;
12990;SDS011;6560;57.692;11.958;2023-04-03T05:04:22;9.60;;;1.90;;
12990;SDS011;6560;57.692;11.958;2023-04-03T05:06:47;6.03;;;2.13;;
12990;SDS011;6560;57.692;11.958;2023-04-03T05:09:13;9.43;;;2.47;;
12990;SDS011;6560;57.692;11.958;2023-04-03T05:11:39;7.70;;;1.60;;
12990;SDS011;6560;57.692;11.958;2023-04-03T05:14:04;5.30;;;2.27;;
12990;SDS011;6560;57.692;11.958;2023-04-03T05:16:32;12.23;;;2.97;;
12990;SDS011;6560;57.692;11.958;2023-04-03T05:18:58;14.70;;;2.77;;
12990;SDS011;6560;57.692;11.958;2023-04-03T05:21:23;6.00;;;2.33;;
12990;SDS011;6560;57.692;11.958;2023-04-03T05:23:51;7.63;;;2.40;;
12990;SDS011;6560;57.692;11.958;2023-04-03T05:26:17;5.93;;;2.30;;
12990;SDS011;6560;57.692;11.958;2023-04-03T05:28:42;3.67;;;1.70;;
12990;SDS011;6560;57.692;11.958;2023-04-03T05:31:08;6.93;;;1.90;;
12990;SDS011;6560;57.692;11.958;2023-04-03T05:33:33;8.60;;;2.97;;
12990;SDS011;6560;57.692;11.958;2023-04-03T05:36:03;10.23;;;2.60;;
12990;SDS011;6560;57.692;11.958;2023-04-03T05:38:29;6.40;;;2.20;;
12990;SDS011;6560;57.692;11.958;2023-04-03T05:40:55;11.43;;;2.73;;
12990;SDS011;6560;57.692;11.958;2023-04-03T05:43:21;17.70;;;3.00;;
12990;SDS011;6560;57.692;11.958;2023-04-03T05:45:47;11.93;;;2.33;;
12990;SDS011;6560;57.692;11.958;2023-04-03T05:48:13;26.10;;;6.57;;
12990;SDS011;6560;57.692;11.958;2023-04-03T05:50:38;10.40;;;3.30;;
12990;SDS011;6560;57.692;11.958;2023-04-03T05:53:06;9.40;;;2.60;;
12990;SDS011;6560;57.692;11.958;2023-04-03T05:55:38;11.60;;;2.97;;
12990;SDS011;6560;57.692;11.958;2023-04-03T05:58:03;5.13;;;2.07;;
12990;SDS011;6560;57.692;11.958;2023-04-03T06:00:29;9.30;;;2.30;;
12990;SDS011;6560;57.692;11.958;2023-04-03T06:02:54;8.47;;;2.87;;
12990;SDS011;6560;57.692;11.958;2023-04-03T06:05:21;10.70;;;2.43;;
12990;SDS011;6560;57.692;11.958;2023-04-03T06:07:47;6.57;;;1.83;;
12990;SDS011;6560;57.692;11.958;2023-04-03T06:10:14;11.00;;;1.97;;
12990;SDS011;6560;57.692;11.958;2023-04-03T06:12:40;9.83;;;2.20;;
12990;SDS011;6560;57.692;11.958;2023-04-03T06:15:05;4.20;;;1.60;;
12990;SDS011;6560;57.692;11.958;2023-04-03T06:17:33;10.77;;;2.17;;
12990;SDS011;6560;57.692;11.958;2023-04-03T06:19:58;9.00;;;2.00;;
12990;SDS011;6560;57.692;11.958;2023-04-03T06:22:24;12.70;;;2.07;;
12990;SDS011;6560;57.692;11.958;2023-04-03T06:24:50;9.50;;;1.83;;
12990;SDS011;6560;57.692;11.958;2023-04-03T06:27:16;13.07;;;1.97;;
12990;SDS011;6560;57.692;11.958;2023-04-03T06:29:41;7.20;;;1.77;;
12990;SDS011;6560;57.692;11.958;2023-04-03T06:32:08;8.40;;;1.73;;
12990;SDS011;6560;57.692;11.958;2023-04-03T06:34:33;9.73;;;1.90;;
12990;SDS011;6560;57.692;11.958;2023-04-03T06:36:59;8.23;;;2.03;;
12990;SDS011;6560;57.692;11.958;2023-04-03T06:39:25;6.93;;;1.87;;
12990;SDS011;6560;57.692;11.958;2023-04-03T06:41:50;6.40;;;1.70;;
12990;SDS011;6560;57.692;11.958;2023-04-03T06:44:16;15.27;;;2.17;;
12990;SDS011;6560;57.692;11.958;2023-04-03T06:46:42;7.27;;;2.17;;
12990;SDS011;6560;57.692;11.958;2023-04-03T06:49:09;5.87;;;1.63;;
12990;SDS011;6560;57.692;11.958;2023-04-03T06:51:35;5.90;;;1.33;;
12990;SDS011;6560;57.692;11.958;2023-04-03T06:54:02;5.07;;;1.23;;
12990;SDS011;6560;57.692;11.958;2023-04-03T06:56:29;5.87;;;1.40;;
12990;SDS011;6560;57.692;11.958;2023-04-03T06:58:54;4.63;;;1.33;;
12990;SDS011;6560;57.692;11.958;2023-04-03T07:01:23;4.50;;;1.33;;
12990;SDS011;6560;57.692;11.958;2023-04-03T07:03:51;3.40;;;1.03;;
12990;SDS011;6560;57.692;11.958;2023-04-03T07:06:17;3.27;;;1.00;;
12990;SDS011;6560;57.692;11.958;2023-04-03T07:08:44;7.37;;;1.70;;
12990;SDS011;6560;57.692;11.958;2023-04-03T07:11:11;10.57;;;1.60;;
12990;SDS011;6560;57.692;11.958;2023-04-03T07:13:37;6.73;;;1.50;;
12990;SDS011;6560;57.692;11.958;2023-04-03T07:16:03;6.00;;;1.67;;
12990;SDS011;6560;57.692;11.958;2023-04-03T07:18:30;7.30;;;0.90;;
12990;SDS011;6560;57.692;11.958;2023-04-03T07:20:57;2.60;;;0.97;;
12990;SDS011;6560;57.692;11.958;2023-04-03T07:23:23;7.87;;;1.40;;
12990;SDS011;6560;57.692;11.958;2023-04-03T07:25:49;5.97;;;1.27;;
12990;SDS011;6560;57.692;11.958;2023-04-03T07:28:16;2.93;;;1.20;;
12990;SDS011;6560;57.692;11.958;2023-04-03T07:30:44;4.63;;;1.20;;
12990;SDS011;6560;57.692;11.958;2023-04-03T07:33:14;3.03;;;1.33;;
12990;SDS011;6560;57.692;11.958;2023-04-03T07:35:40;6.17;;;1.40;;
12990;SDS011;6560;57.692;11.958;2023-04-03T07:38:07;5.10;;;1.33;;
12990;SDS011;6560;57.692;11.958;2023-04-03T07:40:33;3.90;;;1.60;;
12990;SDS011;6560;57.692;11.958;2023-04-03T07:43:00;6.87;;;1.60;;
12990;SDS011;6560;57.692;11.958;2023-04-03T07:45:25;11.80;;;1.70;;
12990;SDS011;6560;57.692;11.958;2023-04-03T07:47:51;7.40;;;1.55;;
12990;SDS011;6560;57.692;11.958;2023-04-03T07:50:17;7.72;;;1.50;;
12990;SDS011;6560;57.692;11.958;2023-04-03T07:52:42;3.55;;;0.90;;
12990;SDS011;6560;57.692;11.958;2023-04-03T07:55:08;5.88;;;1.27;;
12990;SDS011;6560;57.692;11.958;2023-04-03T07:57:34;6.78;;;1.55;;
12990;SDS011;6560;57.692;11.958;2023-04-03T08:00:00;4.45;;;1.13;;
12990;SDS011;6560;57.692;11.958;2023-04-03T08:02:26;8.15;;;1.80;;
12990;SDS011;6560;57.692;11.958;2023-04-03T08:04:51;4.80;;;1.15;;
12990;SDS011;6560;57.692;11.958;2023-04-03T08:07:17;9.03;;;1.60;;
12990;SDS011;6560;57.692;11.958;2023-04-03T08:09:42;11.07;;;1.53;;
12990;SDS011;6560;57.692;11.958;2023-04-03T08:12:09;13.03;;;1.20;;
12990;SDS011;6560;57.692;11.958;2023-04-03T08:14:36;6.60;;;1.60;;
12990;SDS011;6560;57.692;11.958;2023-04-03T08:17:02;4.20;;;1.40;;
12990;SDS011;6560;57.692;11.958;2023-04-03T08:19:30;8.73;;;1.80;;
12990;SDS011;6560;57.692;11.958;2023-04-03T08:21:55;1.60;;;0.70;;
12990;SDS011;6560;57.692;11.958;2023-04-03T08:24:23;4.90;;;1.00;;
12990;SDS011;6560;57.692;11.958;2023-04-03T08:26:49;4.57;;;1.13;;
12990;SDS011;6560;57.692;11.958;2023-04-03T08:29:15;2.97;;;1.07;;
12990;SDS011;6560;57.692;11.958;2023-04-03T08:31:40;4.10;;;1.03;;
12990;SDS011;6560;57.692;11.958;2023-04-03T08:34:06;3.23;;;1.17;;
12990;SDS011;6560;57.692;11.958;2023-04-03T08:36:32;2.20;;;1.20;;
12990;SDS011;6560;57.692;11.958;2023-04-03T08:38:57;2.63;;;1.43;;
12990;SDS011;6560;57.692;11.958;2023-04-03T08:49:44;14.07;;;1.80;;
12990;SDS011;6560;57.692;11.958;2023-04-03T08:52:28;6.47;;;1.43;;
12990;SDS011;6560;57.692;11.958;2023-04-03T08:55:03;6.57;;;1.80;;
12990;SDS011;6560;57.692;11.958;2023-04-03T08:57:50;4.67;;;1.60;;
12990;SDS011;6560;57.692;11.958;2023-04-03T09:00:49;4.47;;;1.40;;
12990;SDS011;6560;57.692;11.958;2023-04-03T09:03:21;2.50;;;0.90;;
12990;SDS011;6560;57.692;11.958;2023-04-03T09:05:50;4.33;;;1.10;;
12990;SDS011;6560;57.692;11.958;2023-04-03T09:08:27;3.67;;;1.20;;
12990;SDS011;6560;57.692;11.958;2023-04-03T09:13:48;0.73;;;0.60;;
12990;SDS011;6560;57.692;11.958;2023-04-03T09:19:15;1.60;;;0.40;;
12990;SDS011;6560;57.692;11.958;2023-04-03T09:21:57;1.10;;;0.60;;
12990;SDS011;6560;57.692;11.958;2023-04-03T09:24:26;0.50;;;0.30;;
12990;SDS011;6560;57.692;11.958;2023-04-03T09:27:03;0.63;;;0.37;;
12990;SDS011;6560;57.692;11.958;2023-04-03T09:29:30;1.87;;;0.73;;
12990;SDS011;6560;57.692;11.958;2023-04-03T09:32:01;1.40;;;0.40;;
12990;SDS011;6560;57.692;11.958;2023-04-03T09:34:37;0.80;;;0.60;;
12990;SDS011;6560;57.692;11.958;2023-04-03T09:37:06;2.10;;;1.27;;
12990;SDS011;6560;57.692;11.958;2023-04-03T09:39:52;5.53;;;1.03;;
12990;SDS011;6560;57.692;11.958;2023-04-03T09:42:20;3.90;;;1.10;;
12990;SDS011;6560;57.692;11.958;2023-04-03T09:44:56;6.43;;;1.00;;
12990;SDS011;6560;57.692;11.958;2023-04-03T09:47:27;4.27;;;1.07;;
12990;SDS011;6560;57.692;11.958;2023-04-03T09:52:48;4.60;;;1.03;;
12990;SDS011;6560;57.692;11.958;2023-04-03T09:55:20;5.57;;;1.20;;
12990;SDS011;6560;57.692;11.958;2023-04-03T09:58:03;4.50;;;0.93;;
12990;SDS011;6560;57.692;11.958;2023-04-03T10:00:32;3.33;;;0.80;;
12990;SDS011;6560;57.692;11.958;2023-04-03T10:03:01;2.37;;;0.80;;
12990;SDS011;6560;57.692;11.958;2023-04-03T10:05:37;3.97;;;1.27;;
12990;SDS011;6560;57.692;11.958;2023-04-03T10:10:41;1.00;;;0.70;;
12990;SDS011;6560;57.692;11.958;2023-04-03T10:13:12;0.50;;;0.50;;
12990;SDS011;6560;57.692;11.958;2023-04-03T10:15:54;2.00;;;0.70;;
12990;SDS011;6560;57.692;11.958;2023-04-03T10:18:37;1.53;;;0.87;;
12990;SDS011;6560;57.692;11.958;2023-04-03T10:21:32;1.80;;;0.70;;
12990;SDS011;6560;57.692;11.958;2023-04-03T10:27:09;1.90;;;0.60;;
12990;SDS011;6560;57.692;11.958;2023-04-03T10:29:50;2.97;;;0.90;;
12990;SDS011;6560;57.692;11.958;2023-04-03T10:32:40;1.63;;;1.13;;
12990;SDS011;6560;57.692;11.958;2023-04-03T10:35:36;2.40;;;1.10;;
12990;SDS011;6560;57.692;11.958;2023-04-03T10:46:27;5.77;;;1.13;;
12990;SDS011;6560;57.692;11.958;2023-04-03T10:49:08;2.50;;;1.20;;
12990;SDS011;6560;57.692;11.958;2023-04-03T10:51:41;6.27;;;1.17;;
12990;SDS011;6560;57.692;11.958;2023-04-03T10:56:45;7.87;;;1.60;;
12990;SDS011;6560;57.692;11.958;2023-04-03T10:59:16;9.50;;;1.50;;
12990;SDS011;6560;57.692;11.958;2023-04-03T11:01:49;5.80;;;1.37;;
12990;SDS011;6560;57.692;11.958;2023-04-03T11:04:19;6.57;;;1.73;;
12990;SDS011;6560;57.692;11.958;2023-04-03T11:06:57;6.57;;;1.53;;
12990;SDS011;6560;57.692;11.958;2023-04-03T11:09:28;5.13;;;1.47;;
12990;SDS011;6560;57.692;11.958;2023-04-03T11:12:06;5.90;;;1.30;;
12990;SDS011;6560;57.692;11.958;2023-04-03T11:14:42;4.63;;;1.10;;
12990;SDS011;6560;57.692;11.958;2023-04-03T11:22:38;5.23;;;1.07;;
12990;SDS011;6560;57.692;11.958;2023-04-03T11:30:18;1.73;;;0.83;;
12990;SDS011;6560;57.692;11.958;2023-04-03T11:35:24;2.80;;;0.80;;
12990;SDS011;6560;57.692;11.958;2023-04-03T11:37:51;1.50;;;0.60;;
12990;SDS011;6560;57.692;11.958;2023-04-03T11:40:23;2.10;;;0.70;;
12990;SDS011;6560;57.692;11.958;2023-04-03T11:42:53;1.93;;;0.70;;
12990;SDS011;6560;57.692;11.958;2023-04-03T11:51:01;1.37;;;0.80;;
12990;SDS011;6560;57.692;11.958;2023-04-03T11:53:47;3.60;;;1.00;;
12990;SDS011;6560;57.692;11.958;2023-04-03T12:04:19;1.20;;;0.50;;
12990;SDS011;6560;57.692;11.958;2023-04-03T12:15:11;2.40;;;0.87;;
12990;SDS011;6560;57.692;11.958;2023-04-03T12:17:57;2.40;;;0.97;;
12990;SDS011;6560;57.692;11.958;2023-04-03T12:23:29;2.13;;;0.70;;
12990;SDS011;6560;57.692;11.958;2023-04-03T12:28:40;5.00;;;1.33;;
12990;SDS011;6560;57.692;11.958;2023-04-03T12:31:07;4.33;;;1.57;;
12990;SDS011;6560;57.692;11.958;2023-04-03T12:36:41;3.63;;;0.87;;
12990;SDS011;6560;57.692;11.958;2023-04-03T12:39:25;1.33;;;0.67;;
12990;SDS011;6560;57.692;11.958;2023-04-03T12:42:20;2.93;;;0.87;;
12990;SDS011;6560;57.692;11.958;2023-04-03T12:47:31;1.67;;;1.00;;
12990;SDS011;6560;57.692;11.958;2023-04-03T12:50:18;3.30;;;0.90;;
12990;SDS011;6560;57.692;11.958;2023-04-03T12:53:05;2.37;;;0.87;;
12990;SDS011;6560;57.692;11.958;2023-04-03T12:55:32;3.30;;;1.30;;
12990;SDS011;6560;57.692;11.958;2023-04-03T12:58:13;1.67;;;0.80;;
12990;SDS011;6560;57.692;11.958;2023-04-03T13:00:59;4.27;;;1.00;;
12990;SDS011;6560;57.692;11.958;2023-04-03T13:03:29;1.87;;;0.93;;
12990;SDS011;6560;57.692;11.958;2023-04-03T13:06:02;1.10;;;0.83;;
12990;SDS011;6560;57.692;11.958;2023-04-03T13:08:28;1.67;;;0.83;;
12990;SDS011;6560;57.692;11.958;2023-04-03T13:11:00;2.93;;;1.00;;
12990;SDS011;6560;57.692;11.958;2023-04-03T13:13:30;2.23;;;1.23;;
12990;SDS011;6560;57.692;11.958;2023-04-03T13:15:56;1.90;;;0.73;;
12990;SDS011;6560;57.692;11.958;2023-04-03T13:18:26;1.47;;;0.67;;
12990;SDS011;6560;57.692;11.958;2023-04-03T13:21:17;5.10;;;1.20;;
12990;SDS011;6560;57.692;11.958;2023-04-03T13:23:45;2.83;;;0.97;;
12990;SDS011;6560;57.692;11.958;2023-04-03T13:26:15;3.33;;;1.03;;
12990;SDS011;6560;57.692;11.958;2023-04-03T13:28:43;2.77;;;1.50;;
12990;SDS011;6560;57.692;11.958;2023-04-03T13:33:39;1.07;;;0.60;;
12990;SDS011;6560;57.692;11.958;2023-04-03T13:36:18;2.07;;;0.70;;
12990;SDS011;6560;57.692;11.958;2023-04-03T13:38:45;3.07;;;0.67;;
12990;SDS011;6560;57.692;11.958;2023-04-03T13:41:25;5.90;;;1.40;;
12990;SDS011;6560;57.692;11.958;2023-04-03T13:43:54;2.67;;;0.63;;
12990;SDS011;6560;57.692;11.958;2023-04-03T13:48:55;4.63;;;1.00;;
12990;SDS011;6560;57.692;11.958;2023-04-03T13:51:25;1.90;;;0.83;;
12990;SDS011;6560;57.692;11.958;2023-04-03T13:57:00;1.07;;;0.60;;
12990;SDS011;6560;57.692;11.958;2023-04-03T14:04:29;3.40;;;1.10;;
12990;SDS011;6560;57.692;11.958;2023-04-03T14:06:56;0.70;;;0.70;;
12990;SDS011;6560;57.692;11.958;2023-04-03T14:09:22;2.60;;;0.80;;
12990;SDS011;6560;57.692;11.958;2023-04-03T14:11:52;2.97;;;0.90;;
12990;SDS011;6560;57.692;11.958;2023-04-03T14:14:22;1.93;;;1.07;;
12990;SDS011;6560;57.692;11.958;2023-04-03T14:16:53;7.73;;;1.33;;
12990;SDS011;6560;57.692;11.958;2023-04-03T14:19:23;2.23;;;1.00;;
12990;SDS011;6560;57.692;11.958;2023-04-03T14:21:53;8.60;;;1.30;;
12990;SDS011;6560;57.692;11.958;2023-04-03T14:24:20;3.77;;;1.00;;
12990;SDS011;6560;57.692;11.958;2023-04-03T14:26:47;1.97;;;1.13;;
12990;SDS011;6560;57.692;11.958;2023-04-03T14:29:13;3.27;;;0.60;;
12990;SDS011;6560;57.692;11.958;2023-04-03T14:31:40;2.43;;;0.77;;
12990;SDS011;6560;57.692;11.958;2023-04-03T14:34:06;2.40;;;0.83;;
12990;SDS011;6560;57.692;11.958;2023-04-03T14:36:38;1.63;;;0.90;;
12990;SDS011;6560;57.692;11.958;2023-04-03T14:39:06;0.63;;;0.60;;
12990;SDS011;6560;57.692;11.958;2023-04-03T14:41:35;3.03;;;1.03;;
12990;SDS011;6560;57.692;11.958;2023-04-03T14:44:01;3.50;;;0.87;;
12990;SDS011;6560;57.692;11.958;2023-04-03T14:46:31;2.07;;;0.60;;
12990;SDS011;6560;57.692;11.958;2023-04-03T14:48:59;1.57;;;0.90;;
12990;SDS011;6560;57.692;11.958;2023-04-03T14:51:27;1.23;;;0.73;;
12990;SDS011;6560;57.692;11.958;2023-04-03T14:53:52;2.40;;;0.80;;
12990;SDS011;6560;57.692;11.958;2023-04-03T14:56:25;3.27;;;0.80;;
12990;SDS011;6560;57.692;11.958;2023-04-03T14:58:55;1.73;;;0.80;;
12990;SDS011;6560;57.692;11.958;2023-04-03T15:01:22;1.43;;;0.57;;
12990;SDS011;6560;57.692;11.958;2023-04-03T15:03:48;4.00;;;0.70;;
12990;SDS011;6560;57.692;11.958;2023-04-03T15:06:14;2.37;;;1.00;;
12990;SDS011;6560;57.692;11.958;2023-04-03T15:08:41;1.10;;;0.83;;
12990;SDS011;6560;57.692;11.958;2023-04-03T15:11:08;1.03;;;0.53;;
12990;SDS011;6560;57.692;11.958;2023-04-03T15:13:35;1.97;;;0.70;;
12990;SDS011;6560;57.692;11.958;2023-04-03T15:16:00;1.93;;;0.87;;
12990;SDS011;6560;57.692;11.958;2023-04-03T15:18:26;5.10;;;1.27;;
12990;SDS011;6560;57.692;11.958;2023-04-03T15:20:56;1.67;;;0.80;;
12990;SDS011;6560;57.692;11.958;2023-04-03T15:23:21;1.20;;;0.80;;
12990;SDS011;6560;57.692;11.958;2023-04-03T15:25:51;2.10;;;1.20;;
12990;SDS011;6560;57.692;11.958;2023-04-03T15:28:19;2.07;;;1.00;;
12990;SDS011;6560;57.692;11.958;2023-04-03T15:30:51;0.93;;;0.70;;
12990;SDS011;6560;57.692;11.958;2023-04-03T15:33:17;0.80;;;0.73;;
12990;SDS011;6560;57.692;11.958;2023-04-03T15:35:43;4.23;;;1.13;;
12990;SDS011;6560;57.692;11.958;2023-04-03T15:38:08;2.47;;;0.90;;
12990;SDS011;6560;57.692;11.958;2023-04-03T15:40:35;4.60;;;0.97;;
12990;SDS011;6560;57.692;11.958;2023-04-03T15:43:01;2.40;;;0.93;;
12990;SDS011;6560;57.692;11.958;2023-04-03T15:45:28;3.63;;;1.10;;
12990;SDS011;6560;57.692;11.958;2023-04-03T15:47:58;1.33;;;0.87;;
12990;SDS011;6560;57.692;11.958;2023-04-03T15:50:23;7.37;;;1.23;;
12990;SDS011;6560;57.692;11.958;2023-04-03T15:52:49;3.03;;;1.03;;
12990;SDS011;6560;57.692;11.958;2023-04-03T15:55:20;2.43;;;0.70;;
12990;SDS011;6560;57.692;11.958;2023-04-03T15:57:52;4.27;;;1.30;;
12990;SDS011;6560;57.692;11.958;2023-04-03T16:00:18;2.57;;;1.70;;
12990;SDS011;6560;57.692;11.958;2023-04-03T16:02:45;1.17;;;0.53;;
12990;SDS011;6560;57.692;11.958;2023-04-03T16:05:12;3.87;;;0.77;;
12990;SDS011;6560;57.692;11.958;2023-04-03T16:07:38;6.43;;;1.20;;
12990;SDS011;6560;57.692;11.958;2023-04-03T16:10:05;1.20;;;0.70;;
12990;SDS011;6560;57.692;11.958;2023-04-03T16:12:32;1.20;;;1.10;;
12990;SDS011;6560;57.692;11.958;2023-04-03T16:14:57;2.67;;;1.20;;
12990;SDS011;6560;57.692;11.958;2023-04-03T16:17:23;2.03;;;1.00;;
12990;SDS011;6560;57.692;11.958;2023-04-03T16:19:49;0.73;;;0.73;;
12990;SDS011;6560;57.692;11.958;2023-04-03T16:22:14;2.67;;;0.80;;
12990;SDS011;6560;57.692;11.958;2023-04-03T16:24:40;3.20;;;1.07;;
12990;SDS011;6560;57.692;11.958;2023-04-03T16:27:06;3.33;;;1.00;;
12990;SDS011;6560;57.692;11.958;2023-04-03T16:29:31;1.80;;;0.80;;
12990;SDS011;6560;57.692;11.958;2023-04-03T16:31:57;4.17;;;0.77;;
12990;SDS011;6560;57.692;11.958;2023-04-03T16:34:24;2.57;;;0.90;;
12990;SDS011;6560;57.692;11.958;2023-04-03T16:36:50;1.90;;;0.90;;